Página principal
METAR-TAF:

Aeroportos :

Cambridge, Inglaterra

latitude: 52-12N, longitude: 000-11E, altura: 15 m

Observação actual do tempo

O boletim foi feito há 2 horas e 17 minutos, às 18:50 UTC
Vento 10 kt de su-sudeste
Temperatura 14°C
Humidade 38%
Pressão 1024 hPa
Visibilidade 10 km ou mais
sem nuvens abaixo de 1500 metros e sem cumulonimbus

METAR: EGSC 041850Z 16010KT CAVOK 14/00 Q1024

Hora: 22:07 (21:07 UTC)

Previsão

O boletim foi feito há 7 horas e 7 minutos, às 14:00 UTC
Previsão válida de 04 às 15 UTC a 04 às 19 UTC
Vento 9 kt de sul
Visibilidade 10 km ou mais
sem nuvens abaixo de 1500 metros e sem cumulonimbus

TAF: EGSC 041400Z 0415/0419 19009KT CAVOK

METAR-TAF

Observações e previsões do tempo de mais de 4000 aeroportos (mensagens METAR e TAF).

As estações disponíveis são os pontos amarelos e vermelhos sobre o mapa.

Mova o rato sobre o mapa para ver o nome da estação.

Depois clique no ponto para visualizar as observações e previsões meteorológicas.

Para alterar o mapa : clique nos botões verdes com uma cruz preta para aumentar o zoom; no botão verde com uma pitada de zoom; ou nas setas verdes para mapas adjacentes.


METAR-TAF: